sensor_id;sensor_type;location;lat;lon;timestamp;temperature;humidity
3466;DHT22;1747;48.884;9.160;2024-03-06T00:00:03;7.30;99.90
3466;DHT22;1747;48.884;9.160;2024-03-06T00:02:30;7.30;99.90
3466;DHT22;1747;48.884;9.160;2024-03-06T00:04:57;7.40;99.90
3466;DHT22;1747;48.884;9.160;2024-03-06T00:07:24;7.40;99.90
3466;DHT22;1747;48.884;9.160;2024-03-06T00:09:51;7.40;99.90
3466;DHT22;1747;48.884;9.160;2024-03-06T00:12:19;7.50;99.90
3466;DHT22;1747;48.884;9.160;2024-03-06T00:14:46;7.40;99.90
3466;DHT22;1747;48.884;9.160;2024-03-06T00:17:14;7.50;99.90
3466;DHT22;1747;48.884;9.160;2024-03-06T00:19:42;7.50;99.90
3466;DHT22;1747;48.884;9.160;2024-03-06T00:22:09;7.60;99.90
3466;DHT22;1747;48.884;9.160;2024-03-06T00:24:36;7.50;99.90
3466;DHT22;1747;48.884;9.160;2024-03-06T00:27:03;7.50;99.90
3466;DHT22;1747;48.884;9.160;2024-03-06T00:29:31;7.60;99.90
3466;DHT22;1747;48.884;9.160;2024-03-06T00:31:58;7.60;99.90
3466;DHT22;1747;48.884;9.160;2024-03-06T00:34:26;7.60;99.90
3466;DHT22;1747;48.884;9.160;2024-03-06T00:36:54;7.60;99.90
3466;DHT22;1747;48.884;9.160;2024-03-06T00:39:21;7.60;99.90
3466;DHT22;1747;48.884;9.160;2024-03-06T00:41:47;7.60;99.90
3466;DHT22;1747;48.884;9.160;2024-03-06T00:44:15;7.60;99.90
3466;DHT22;1747;48.884;9.160;2024-03-06T00:46:42;7.60;99.90
3466;DHT22;1747;48.884;9.160;2024-03-06T00:49:09;7.60;99.90
3466;DHT22;1747;48.884;9.160;2024-03-06T00:51:37;7.60;99.90
3466;DHT22;1747;48.884;9.160;2024-03-06T00:54:04;7.60;99.90
3466;DHT22;1747;48.884;9.160;2024-03-06T00:56:31;7.60;99.90
3466;DHT22;1747;48.884;9.160;2024-03-06T00:58:58;7.60;99.90
3466;DHT22;1747;48.884;9.160;2024-03-06T01:01:24;7.60;99.90
3466;DHT22;1747;48.884;9.160;2024-03-06T01:03:53;7.60;99.90
3466;DHT22;1747;48.884;9.160;2024-03-06T01:06:20;7.60;99.90
3466;DHT22;1747;48.884;9.160;2024-03-06T01:08:48;7.70;99.90
3466;DHT22;1747;48.884;9.160;2024-03-06T01:11:15;7.70;99.90
3466;DHT22;1747;48.884;9.160;2024-03-06T01:13:42;7.70;99.90
3466;DHT22;1747;48.884;9.160;2024-03-06T01:16:09;7.70;99.90
3466;DHT22;1747;48.884;9.160;2024-03-06T01:18:36;7.80;99.90
3466;DHT22;1747;48.884;9.160;2024-03-06T01:21:03;7.70;99.90
3466;DHT22;1747;48.884;9.160;2024-03-06T01:23:30;7.70;99.90
3466;DHT22;1747;48.884;9.160;2024-03-06T01:25:58;7.70;99.90
3466;DHT22;1747;48.884;9.160;2024-03-06T01:28:25;7.70;99.90
3466;DHT22;1747;48.884;9.160;2024-03-06T01:30:52;7.70;99.90
3466;DHT22;1747;48.884;9.160;2024-03-06T01:33:18;7.70;99.90
3466;DHT22;1747;48.884;9.160;2024-03-06T01:35:45;7.70;99.90
3466;DHT22;1747;48.884;9.160;2024-03-06T01:38:12;7.70;99.90
3466;DHT22;1747;48.884;9.160;2024-03-06T01:40:43;7.70;99.90
3466;DHT22;1747;48.884;9.160;2024-03-06T01:43:19;7.70;99.90
3466;DHT22;1747;48.884;9.160;2024-03-06T01:45:47;7.70;99.90
3466;DHT22;1747;48.884;9.160;2024-03-06T01:48:15;7.80;99.90
3466;DHT22;1747;48.884;9.160;2024-03-06T01:50:42;7.70;99.90
3466;DHT22;1747;48.884;9.160;2024-03-06T01:53:09;7.70;99.90
3466;DHT22;1747;48.884;9.160;2024-03-06T01:55:37;7.70;99.90
3466;DHT22;1747;48.884;9.160;2024-03-06T01:58:04;7.70;99.90
3466;DHT22;1747;48.884;9.160;2024-03-06T02:00:34;7.70;99.90
3466;DHT22;1747;48.884;9.160;2024-03-06T02:03:02;7.60;99.90
3466;DHT22;1747;48.884;9.160;2024-03-06T02:05:29;7.60;99.90
3466;DHT22;1747;48.884;9.160;2024-03-06T02:07:57;7.70;99.90
3466;DHT22;1747;48.884;9.160;2024-03-06T02:10:25;7.60;99.90
3466;DHT22;1747;48.884;9.160;2024-03-06T02:12:53;7.60;99.90
3466;DHT22;1747;48.884;9.160;2024-03-06T02:15:20;7.60;99.90
3466;DHT22;1747;48.884;9.160;2024-03-06T02:17:48;7.60;99.90
3466;DHT22;1747;48.884;9.160;2024-03-06T02:20:15;7.60;99.90
3466;DHT22;1747;48.884;9.160;2024-03-06T02:22:43;7.60;99.90
3466;DHT22;1747;48.884;9.160;2024-03-06T02:25:11;7.60;99.90
3466;DHT22;1747;48.884;9.160;2024-03-06T02:27:38;7.50;99.90
3466;DHT22;1747;48.884;9.160;2024-03-06T02:30:06;7.60;99.90
3466;DHT22;1747;48.884;9.160;2024-03-06T02:32:33;7.60;99.90
3466;DHT22;1747;48.884;9.160;2024-03-06T02:35:01;7.60;99.90
3466;DHT22;1747;48.884;9.160;2024-03-06T02:37:29;7.50;99.90
3466;DHT22;1747;48.884;9.160;2024-03-06T02:39:57;7.50;99.90
3466;DHT22;1747;48.884;9.160;2024-03-06T02:42:25;7.60;99.90
3466;DHT22;1747;48.884;9.160;2024-03-06T02:44:52;7.50;99.90
3466;DHT22;1747;48.884;9.160;2024-03-06T02:47:19;7.50;99.90
3466;DHT22;1747;48.884;9.160;2024-03-06T02:49:46;7.60;99.90
3466;DHT22;1747;48.884;9.160;2024-03-06T02:52:13;7.60;99.90
3466;DHT22;1747;48.884;9.160;2024-03-06T02:54:40;7.60;99.90
3466;DHT22;1747;48.884;9.160;2024-03-06T02:57:09;7.70;99.90
3466;DHT22;1747;48.884;9.160;2024-03-06T02:59:35;7.70;99.90
3466;DHT22;1747;48.884;9.160;2024-03-06T03:02:02;7.70;99.90
3466;DHT22;1747;48.884;9.160;2024-03-06T03:04:29;7.70;99.90
3466;DHT22;1747;48.884;9.160;2024-03-06T03:06:57;7.70;99.90
3466;DHT22;1747;48.884;9.160;2024-03-06T03:09:23;7.70;99.90
3466;DHT22;1747;48.884;9.160;2024-03-06T03:11:50;7.70;99.90
3466;DHT22;1747;48.884;9.160;2024-03-06T03:14:18;7.70;99.90
3466;DHT22;1747;48.884;9.160;2024-03-06T03:16:45;7.80;99.90
3466;DHT22;1747;48.884;9.160;2024-03-06T03:19:12;7.70;99.90
3466;DHT22;1747;48.884;9.160;2024-03-06T03:21:42;7.70;99.90
3466;DHT22;1747;48.884;9.160;2024-03-06T03:24:09;7.80;99.90
3466;DHT22;1747;48.884;9.160;2024-03-06T03:26:36;7.80;99.90
3466;DHT22;1747;48.884;9.160;2024-03-06T03:29:03;7.70;99.90
3466;DHT22;1747;48.884;9.160;2024-03-06T03:31:32;7.70;99.90
3466;DHT22;1747;48.884;9.160;2024-03-06T03:33:58;7.70;99.90
3466;DHT22;1747;48.884;9.160;2024-03-06T03:36:25;7.70;99.90
3466;DHT22;1747;48.884;9.160;2024-03-06T03:38:52;7.70;99.90
3466;DHT22;1747;48.884;9.160;2024-03-06T03:41:19;7.70;99.90
3466;DHT22;1747;48.884;9.160;2024-03-06T03:43:46;7.60;99.90
3466;DHT22;1747;48.884;9.160;2024-03-06T03:46:13;7.60;99.90
3466;DHT22;1747;48.884;9.160;2024-03-06T03:48:41;7.70;99.90
3466;DHT22;1747;48.884;9.160;2024-03-06T03:51:08;7.70;99.90
3466;DHT22;1747;48.884;9.160;2024-03-06T03:53:35;7.70;99.90
3466;DHT22;1747;48.884;9.160;2024-03-06T03:56:03;7.70;99.90
3466;DHT22;1747;48.884;9.160;2024-03-06T03:58:30;7.70;99.90
3466;DHT22;1747;48.884;9.160;2024-03-06T04:00:56;7.60;99.90
3466;DHT22;1747;48.884;9.160;2024-03-06T04:03:23;7.70;99.90
3466;DHT22;1747;48.884;9.160;2024-03-06T04:05:51;7.70;99.90
3466;DHT22;1747;48.884;9.160;2024-03-06T04:08:18;7.70;99.90
3466;DHT22;1747;48.884;9.160;2024-03-06T04:10:45;7.80;99.90
3466;DHT22;1747;48.884;9.160;2024-03-06T04:13:15;7.80;99.90
3466;DHT22;1747;48.884;9.160;2024-03-06T04:15:43;7.80;99.90
3466;DHT22;1747;48.884;9.160;2024-03-06T04:18:09;7.70;99.90
3466;DHT22;1747;48.884;9.160;2024-03-06T04:20:36;7.70;99.90
3466;DHT22;1747;48.884;9.160;2024-03-06T04:23:05;7.70;99.90
3466;DHT22;1747;48.884;9.160;2024-03-06T04:25:32;7.70;99.90
3466;DHT22;1747;48.884;9.160;2024-03-06T04:27:59;7.70;99.90
3466;DHT22;1747;48.884;9.160;2024-03-06T04:30:28;7.80;99.90
3466;DHT22;1747;48.884;9.160;2024-03-06T04:32:54;7.80;99.90
3466;DHT22;1747;48.884;9.160;2024-03-06T04:35:21;7.70;99.90
3466;DHT22;1747;48.884;9.160;2024-03-06T04:37:48;7.80;99.90
3466;DHT22;1747;48.884;9.160;2024-03-06T04:40:16;7.70;99.90
3466;DHT22;1747;48.884;9.160;2024-03-06T04:42:45;7.80;99.90
3466;DHT22;1747;48.884;9.160;2024-03-06T04:45:15;7.70;99.90
3466;DHT22;1747;48.884;9.160;2024-03-06T04:47:43;7.70;99.90
3466;DHT22;1747;48.884;9.160;2024-03-06T04:50:10;7.60;99.90
3466;DHT22;1747;48.884;9.160;2024-03-06T04:52:37;7.60;99.90
3466;DHT22;1747;48.884;9.160;2024-03-06T04:55:05;7.60;99.90
3466;DHT22;1747;48.884;9.160;2024-03-06T04:57:34;7.70;99.90
3466;DHT22;1747;48.884;9.160;2024-03-06T05:00:01;7.70;99.90
3466;DHT22;1747;48.884;9.160;2024-03-06T05:02:31;7.70;99.90
3466;DHT22;1747;48.884;9.160;2024-03-06T05:04:59;7.80;99.90
3466;DHT22;1747;48.884;9.160;2024-03-06T05:07:27;7.70;99.90
3466;DHT22;1747;48.884;9.160;2024-03-06T05:09:54;7.60;99.90
3466;DHT22;1747;48.884;9.160;2024-03-06T05:12:22;7.70;99.90
3466;DHT22;1747;48.884;9.160;2024-03-06T05:14:50;7.70;99.90
3466;DHT22;1747;48.884;9.160;2024-03-06T05:17:18;7.50;99.90
3466;DHT22;1747;48.884;9.160;2024-03-06T05:19:45;7.60;99.90
3466;DHT22;1747;48.884;9.160;2024-03-06T05:22:13;7.50;99.90
3466;DHT22;1747;48.884;9.160;2024-03-06T05:24:40;7.50;99.90
3466;DHT22;1747;48.884;9.160;2024-03-06T05:27:07;7.60;99.90
3466;DHT22;1747;48.884;9.160;2024-03-06T05:29:35;7.60;99.90
3466;DHT22;1747;48.884;9.160;2024-03-06T05:32:03;7.70;99.90
3466;DHT22;1747;48.884;9.160;2024-03-06T05:34:30;7.70;99.90
3466;DHT22;1747;48.884;9.160;2024-03-06T05:36:57;7.80;99.90
3466;DHT22;1747;48.884;9.160;2024-03-06T05:39:24;7.60;99.90
3466;DHT22;1747;48.884;9.160;2024-03-06T05:41:50;7.60;99.90
3466;DHT22;1747;48.884;9.160;2024-03-06T05:44:18;7.70;99.90
3466;DHT22;1747;48.884;9.160;2024-03-06T05:46:45;7.70;99.90
3466;DHT22;1747;48.884;9.160;2024-03-06T05:49:13;7.70;99.90
3466;DHT22;1747;48.884;9.160;2024-03-06T05:51:40;7.70;99.90
3466;DHT22;1747;48.884;9.160;2024-03-06T05:54:07;7.60;99.90
3466;DHT22;1747;48.884;9.160;2024-03-06T05:56:34;7.50;99.90
3466;DHT22;1747;48.884;9.160;2024-03-06T05:59:01;7.50;99.90
3466;DHT22;1747;48.884;9.160;2024-03-06T06:01:30;7.50;99.90
3466;DHT22;1747;48.884;9.160;2024-03-06T06:03:57;7.50;99.90
3466;DHT22;1747;48.884;9.160;2024-03-06T06:06:25;7.40;99.90
3466;DHT22;1747;48.884;9.160;2024-03-06T06:08:53;7.40;99.90
3466;DHT22;1747;48.884;9.160;2024-03-06T06:11:20;7.40;99.90
3466;DHT22;1747;48.884;9.160;2024-03-06T06:13:46;7.40;99.90
3466;DHT22;1747;48.884;9.160;2024-03-06T06:16:13;7.40;99.90
3466;DHT22;1747;48.884;9.160;2024-03-06T06:18:40;7.40;99.90
3466;DHT22;1747;48.884;9.160;2024-03-06T06:21:07;7.30;99.90
3466;DHT22;1747;48.884;9.160;2024-03-06T06:23:35;7.40;99.90
3466;DHT22;1747;48.884;9.160;2024-03-06T06:26:02;7.30;99.90
3466;DHT22;1747;48.884;9.160;2024-03-06T06:28:29;7.30;99.90
3466;DHT22;1747;48.884;9.160;2024-03-06T06:30:56;7.30;99.90
3466;DHT22;1747;48.884;9.160;2024-03-06T06:33:23;7.30;99.90
3466;DHT22;1747;48.884;9.160;2024-03-06T06:35:49;7.30;99.90
3466;DHT22;1747;48.884;9.160;2024-03-06T06:38:17;7.30;99.90
3466;DHT22;1747;48.884;9.160;2024-03-06T06:40:47;7.40;99.90
3466;DHT22;1747;48.884;9.160;2024-03-06T06:43:14;7.40;99.90
3466;DHT22;1747;48.884;9.160;2024-03-06T06:45:40;7.40;99.90
3466;DHT22;1747;48.884;9.160;2024-03-06T06:48:07;7.40;99.90
3466;DHT22;1747;48.884;9.160;2024-03-06T06:50:35;7.50;99.90
3466;DHT22;1747;48.884;9.160;2024-03-06T06:53:01;7.50;99.90
3466;DHT22;1747;48.884;9.160;2024-03-06T06:55:28;7.50;99.90
3466;DHT22;1747;48.884;9.160;2024-03-06T06:57:56;7.50;99.90
3466;DHT22;1747;48.884;9.160;2024-03-06T07:00:23;7.50;99.90
3466;DHT22;1747;48.884;9.160;2024-03-06T07:02:51;7.60;99.90
3466;DHT22;1747;48.884;9.160;2024-03-06T07:05:18;7.60;99.90
3466;DHT22;1747;48.884;9.160;2024-03-06T07:07:45;7.50;99.90
3466;DHT22;1747;48.884;9.160;2024-03-06T07:10:12;7.60;99.90
3466;DHT22;1747;48.884;9.160;2024-03-06T07:12:39;7.70;99.90
3466;DHT22;1747;48.884;9.160;2024-03-06T07:15:08;7.70;99.90
3466;DHT22;1747;48.884;9.160;2024-03-06T07:17:35;7.70;99.90
3466;DHT22;1747;48.884;9.160;2024-03-06T07:20:02;7.70;99.90
3466;DHT22;1747;48.884;9.160;2024-03-06T07:22:30;7.60;99.90
3466;DHT22;1747;48.884;9.160;2024-03-06T07:24:59;7.60;99.90
3466;DHT22;1747;48.884;9.160;2024-03-06T07:27:26;7.60;99.90
3466;DHT22;1747;48.884;9.160;2024-03-06T07:29:53;7.60;99.90
3466;DHT22;1747;48.884;9.160;2024-03-06T07:32:22;7.60;99.90
3466;DHT22;1747;48.884;9.160;2024-03-06T07:34:49;7.60;99.90
3466;DHT22;1747;48.884;9.160;2024-03-06T07:37:16;7.70;99.90
3466;DHT22;1747;48.884;9.160;2024-03-06T07:39:42;7.80;99.90
3466;DHT22;1747;48.884;9.160;2024-03-06T07:42:09;7.70;99.90
3466;DHT22;1747;48.884;9.160;2024-03-06T07:44:36;7.70;99.90
3466;DHT22;1747;48.884;9.160;2024-03-06T07:47:03;7.80;99.90
3466;DHT22;1747;48.884;9.160;2024-03-06T07:49:31;7.80;99.90
3466;DHT22;1747;48.884;9.160;2024-03-06T07:51:58;7.80;99.90
3466;DHT22;1747;48.884;9.160;2024-03-06T07:54:25;7.90;99.90
3466;DHT22;1747;48.884;9.160;2024-03-06T07:56:52;8.10;99.90
3466;DHT22;1747;48.884;9.160;2024-03-06T07:59:19;8.10;99.90
3466;DHT22;1747;48.884;9.160;2024-03-06T08:01:46;8.10;99.90
3466;DHT22;1747;48.884;9.160;2024-03-06T08:04:13;8.00;99.90
3466;DHT22;1747;48.884;9.160;2024-03-06T08:06:41;8.10;99.90
3466;DHT22;1747;48.884;9.160;2024-03-06T08:09:08;8.20;99.90
3466;DHT22;1747;48.884;9.160;2024-03-06T08:11:35;8.30;99.90
3466;DHT22;1747;48.884;9.160;2024-03-06T08:14:02;8.40;99.90
3466;DHT22;1747;48.884;9.160;2024-03-06T08:16:29;8.20;99.90
3466;DHT22;1747;48.884;9.160;2024-03-06T08:18:56;8.30;99.90
3466;DHT22;1747;48.884;9.160;2024-03-06T08:21:24;8.30;99.90
3466;DHT22;1747;48.884;9.160;2024-03-06T08:23:53;8.30;99.90
3466;DHT22;1747;48.884;9.160;2024-03-06T08:26:19;8.20;99.90
3466;DHT22;1747;48.884;9.160;2024-03-06T08:28:46;8.30;99.90
3466;DHT22;1747;48.884;9.160;2024-03-06T08:31:14;8.30;99.90
3466;DHT22;1747;48.884;9.160;2024-03-06T08:33:41;8.40;99.90
3466;DHT22;1747;48.884;9.160;2024-03-06T08:36:09;8.50;99.90
3466;DHT22;1747;48.884;9.160;2024-03-06T08:38:36;8.40;99.90
3466;DHT22;1747;48.884;9.160;2024-03-06T08:41:04;8.40;99.90
3466;DHT22;1747;48.884;9.160;2024-03-06T08:43:32;8.40;99.90
3466;DHT22;1747;48.884;9.160;2024-03-06T08:45:58;8.30;99.90
3466;DHT22;1747;48.884;9.160;2024-03-06T08:48:25;8.30;99.90
3466;DHT22;1747;48.884;9.160;2024-03-06T08:50:52;8.30;99.90
3466;DHT22;1747;48.884;9.160;2024-03-06T08:53:20;8.40;99.90
3466;DHT22;1747;48.884;9.160;2024-03-06T08:55:47;8.50;99.90
3466;DHT22;1747;48.884;9.160;2024-03-06T08:58:15;8.50;99.90
3466;DHT22;1747;48.884;9.160;2024-03-06T09:00:41;8.50;99.90
3466;DHT22;1747;48.884;9.160;2024-03-06T09:03:08;8.50;99.90
3466;DHT22;1747;48.884;9.160;2024-03-06T09:05:35;8.50;99.90
3466;DHT22;1747;48.884;9.160;2024-03-06T09:08:02;8.40;99.90
3466;DHT22;1747;48.884;9.160;2024-03-06T09:10:29;8.50;99.90
3466;DHT22;1747;48.884;9.160;2024-03-06T09:12:55;8.50;99.90
3466;DHT22;1747;48.884;9.160;2024-03-06T09:15:26;8.60;99.90
3466;DHT22;1747;48.884;9.160;2024-03-06T09:17:53;8.50;99.90
3466;DHT22;1747;48.884;9.160;2024-03-06T09:20:34;8.50;99.90
3466;DHT22;1747;48.884;9.160;2024-03-06T09:23:01;8.50;99.90
3466;DHT22;1747;48.884;9.160;2024-03-06T09:25:28;8.50;99.90
3466;DHT22;1747;48.884;9.160;2024-03-06T09:27:55;8.50;99.90
3466;DHT22;1747;48.884;9.160;2024-03-06T09:30:23;8.60;99.90
3466;DHT22;1747;48.884;9.160;2024-03-06T09:32:50;8.50;99.90
3466;DHT22;1747;48.884;9.160;2024-03-06T09:35:17;8.60;99.90
3466;DHT22;1747;48.884;9.160;2024-03-06T09:37:45;8.70;99.90
3466;DHT22;1747;48.884;9.160;2024-03-06T09:40:19;8.70;99.90
3466;DHT22;1747;48.884;9.160;2024-03-06T09:42:47;8.70;99.90
3466;DHT22;1747;48.884;9.160;2024-03-06T09:45:14;8.70;99.90
3466;DHT22;1747;48.884;9.160;2024-03-06T09:47:43;8.80;99.90
3466;DHT22;1747;48.884;9.160;2024-03-06T09:50:10;8.80;99.90
3466;DHT22;1747;48.884;9.160;2024-03-06T09:52:39;8.80;99.90
3466;DHT22;1747;48.884;9.160;2024-03-06T09:55:08;8.90;99.90
3466;DHT22;1747;48.884;9.160;2024-03-06T09:57:36;8.90;99.90
3466;DHT22;1747;48.884;9.160;2024-03-06T10:00:04;8.90;99.90
3466;DHT22;1747;48.884;9.160;2024-03-06T10:02:37;8.80;99.90
3466;DHT22;1747;48.884;9.160;2024-03-06T10:05:09;8.80;99.90
3466;DHT22;1747;48.884;9.160;2024-03-06T10:07:47;8.70;99.90
3466;DHT22;1747;48.884;9.160;2024-03-06T10:10:14;8.80;99.90
3466;DHT22;1747;48.884;9.160;2024-03-06T10:12:44;8.90;99.90
3466;DHT22;1747;48.884;9.160;2024-03-06T10:15:13;9.00;99.90
3466;DHT22;1747;48.884;9.160;2024-03-06T10:17:40;8.90;99.90
3466;DHT22;1747;48.884;9.160;2024-03-06T10:20:18;8.70;99.90
3466;DHT22;1747;48.884;9.160;2024-03-06T10:22:48;8.70;99.90
3466;DHT22;1747;48.884;9.160;2024-03-06T10:25:18;8.70;99.90
3466;DHT22;1747;48.884;9.160;2024-03-06T10:27:45;8.80;99.90
3466;DHT22;1747;48.884;9.160;2024-03-06T10:30:13;8.90;99.90
3466;DHT22;1747;48.884;9.160;2024-03-06T10:32:42;8.90;99.90
3466;DHT22;1747;48.884;9.160;2024-03-06T10:35:19;8.70;99.90
3466;DHT22;1747;48.884;9.160;2024-03-06T10:37:46;8.60;99.90
3466;DHT22;1747;48.884;9.160;2024-03-06T10:40:15;8.60;99.90
3466;DHT22;1747;48.884;9.160;2024-03-06T10:42:42;8.60;99.90
3466;DHT22;1747;48.884;9.160;2024-03-06T10:45:13;8.50;99.90
3466;DHT22;1747;48.884;9.160;2024-03-06T10:47:41;8.60;99.90
3466;DHT22;1747;48.884;9.160;2024-03-06T10:50:14;8.60;99.90
3466;DHT22;1747;48.884;9.160;2024-03-06T10:52:44;8.80;99.90
3466;DHT22;1747;48.884;9.160;2024-03-06T10:55:13;8.90;99.90
3466;DHT22;1747;48.884;9.160;2024-03-06T10:57:43;8.80;99.90
3466;DHT22;1747;48.884;9.160;2024-03-06T11:00:11;8.90;99.90
3466;DHT22;1747;48.884;9.160;2024-03-06T11:02:45;8.90;99.90
3466;DHT22;1747;48.884;9.160;2024-03-06T11:05:14;8.80;99.90
3466;DHT22;1747;48.884;9.160;2024-03-06T11:07:42;8.80;99.90
3466;DHT22;1747;48.884;9.160;2024-03-06T11:10:10;8.80;99.90
3466;DHT22;1747;48.884;9.160;2024-03-06T11:12:42;8.80;99.90
3466;DHT22;1747;48.884;9.160;2024-03-06T11:15:14;8.80;99.90
3466;DHT22;1747;48.884;9.160;2024-03-06T11:17:42;8.80;99.90
3466;DHT22;1747;48.884;9.160;2024-03-06T11:20:16;8.80;99.90
3466;DHT22;1747;48.884;9.160;2024-03-06T11:23:04;8.80;99.90
3466;DHT22;1747;48.884;9.160;2024-03-06T11:25:56;8.80;99.90
3466;DHT22;1747;48.884;9.160;2024-03-06T11:28:25;8.80;99.90
3466;DHT22;1747;48.884;9.160;2024-03-06T11:30:56;8.80;99.90
3466;DHT22;1747;48.884;9.160;2024-03-06T11:33:27;8.80;99.90
3466;DHT22;1747;48.884;9.160;2024-03-06T11:36:15;8.90;99.90
3466;DHT22;1747;48.884;9.160;2024-03-06T11:38:50;8.90;99.90
3466;DHT22;1747;48.884;9.160;2024-03-06T11:41:18;9.00;99.90
3466;DHT22;1747;48.884;9.160;2024-03-06T11:43:46;9.00;99.90
3466;DHT22;1747;48.884;9.160;2024-03-06T11:46:16;9.10;99.90
3466;DHT22;1747;48.884;9.160;2024-03-06T11:48:43;9.20;99.90
3466;DHT22;1747;48.884;9.160;2024-03-06T11:51:18;9.10;99.90
3466;DHT22;1747;48.884;9.160;2024-03-06T11:53:44;9.20;99.90
3466;DHT22;1747;48.884;9.160;2024-03-06T11:56:13;9.20;99.90
3466;DHT22;1747;48.884;9.160;2024-03-06T11:58:40;9.20;99.90
3466;DHT22;1747;48.884;9.160;2024-03-06T12:01:06;9.20;99.90
3466;DHT22;1747;48.884;9.160;2024-03-06T12:03:34;9.20;99.90
3466;DHT22;1747;48.884;9.160;2024-03-06T12:06:01;9.30;99.90
3466;DHT22;1747;48.884;9.160;2024-03-06T12:08:28;9.30;99.90
3466;DHT22;1747;48.884;9.160;2024-03-06T12:10:56;9.40;99.90
3466;DHT22;1747;48.884;9.160;2024-03-06T12:13:25;9.50;99.90
3466;DHT22;1747;48.884;9.160;2024-03-06T12:15:52;9.60;99.90
3466;DHT22;1747;48.884;9.160;2024-03-06T12:18:19;9.70;99.90
3466;DHT22;1747;48.884;9.160;2024-03-06T12:20:46;9.80;99.90
3466;DHT22;1747;48.884;9.160;2024-03-06T12:23:20;9.80;99.90
3466;DHT22;1747;48.884;9.160;2024-03-06T12:26:02;9.80;99.90
3466;DHT22;1747;48.884;9.160;2024-03-06T12:28:31;9.90;99.90
3466;DHT22;1747;48.884;9.160;2024-03-06T12:30:57;9.80;99.90
3466;DHT22;1747;48.884;9.160;2024-03-06T12:33:26;9.80;99.90
3466;DHT22;1747;48.884;9.160;2024-03-06T12:36:01;9.80;99.90
3466;DHT22;1747;48.884;9.160;2024-03-06T12:38:31;9.80;99.90
3466;DHT22;1747;48.884;9.160;2024-03-06T12:40:58;9.70;99.90
3466;DHT22;1747;48.884;9.160;2024-03-06T12:43:25;9.70;99.90
3466;DHT22;1747;48.884;9.160;2024-03-06T12:45:53;9.70;99.90
3466;DHT22;1747;48.884;9.160;2024-03-06T12:48:21;9.60;99.90
3466;DHT22;1747;48.884;9.160;2024-03-06T12:50:48;9.50;99.90
3466;DHT22;1747;48.884;9.160;2024-03-06T12:53:18;9.40;99.90
3466;DHT22;1747;48.884;9.160;2024-03-06T12:55:45;9.50;99.90
3466;DHT22;1747;48.884;9.160;2024-03-06T12:58:12;9.50;99.90
3466;DHT22;1747;48.884;9.160;2024-03-06T13:00:39;9.40;99.90
3466;DHT22;1747;48.884;9.160;2024-03-06T13:03:07;9.40;99.90
3466;DHT22;1747;48.884;9.160;2024-03-06T13:05:35;9.30;99.90
3466;DHT22;1747;48.884;9.160;2024-03-06T13:08:03;9.30;99.90
3466;DHT22;1747;48.884;9.160;2024-03-06T13:10:30;9.20;99.90
3466;DHT22;1747;48.884;9.160;2024-03-06T13:12:57;9.20;99.90
3466;DHT22;1747;48.884;9.160;2024-03-06T13:15:24;9.20;99.90
3466;DHT22;1747;48.884;9.160;2024-03-06T13:17:51;9.20;99.90
3466;DHT22;1747;48.884;9.160;2024-03-06T13:20:19;9.20;99.90
3466;DHT22;1747;48.884;9.160;2024-03-06T13:22:46;9.20;99.90
3466;DHT22;1747;48.884;9.160;2024-03-06T13:25:13;9.10;99.90
3466;DHT22;1747;48.884;9.160;2024-03-06T13:28:00;9.20;99.90
3466;DHT22;1747;48.884;9.160;2024-03-06T13:30:28;9.10;99.90
3466;DHT22;1747;48.884;9.160;2024-03-06T13:32:55;9.10;99.90
3466;DHT22;1747;48.884;9.160;2024-03-06T13:35:23;9.20;99.90
3466;DHT22;1747;48.884;9.160;2024-03-06T13:37:50;9.30;99.90
3466;DHT22;1747;48.884;9.160;2024-03-06T13:40:19;9.30;99.90
3466;DHT22;1747;48.884;9.160;2024-03-06T13:42:46;9.20;99.90
3466;DHT22;1747;48.884;9.160;2024-03-06T13:45:13;9.30;99.90
3466;DHT22;1747;48.884;9.160;2024-03-06T13:47:40;9.30;99.90
3466;DHT22;1747;48.884;9.160;2024-03-06T13:50:08;9.30;99.90
3466;DHT22;1747;48.884;9.160;2024-03-06T13:52:37;9.20;99.90
3466;DHT22;1747;48.884;9.160;2024-03-06T13:55:04;9.20;99.90
3466;DHT22;1747;48.884;9.160;2024-03-06T13:57:31;9.20;99.90
3466;DHT22;1747;48.884;9.160;2024-03-06T14:00:00;9.20;99.90
3466;DHT22;1747;48.884;9.160;2024-03-06T14:02:27;9.20;99.90
3466;DHT22;1747;48.884;9.160;2024-03-06T14:04:54;9.10;99.90
3466;DHT22;1747;48.884;9.160;2024-03-06T14:07:21;9.10;99.90
3466;DHT22;1747;48.884;9.160;2024-03-06T14:09:50;9.10;99.90
3466;DHT22;1747;48.884;9.160;2024-03-06T14:12:17;9.10;99.90
3466;DHT22;1747;48.884;9.160;2024-03-06T14:14:44;9.20;99.90
3466;DHT22;1747;48.884;9.160;2024-03-06T14:17:11;9.10;99.90
3466;DHT22;1747;48.884;9.160;2024-03-06T14:19:38;9.10;99.90
3466;DHT22;1747;48.884;9.160;2024-03-06T14:22:05;9.10;99.90
3466;DHT22;1747;48.884;9.160;2024-03-06T14:24:32;9.10;99.90
3466;DHT22;1747;48.884;9.160;2024-03-06T14:27:00;9.00;99.90
3466;DHT22;1747;48.884;9.160;2024-03-06T14:29:28;9.00;99.90
3466;DHT22;1747;48.884;9.160;2024-03-06T14:31:55;9.10;99.90
3466;DHT22;1747;48.884;9.160;2024-03-06T14:34:22;9.00;99.90
3466;DHT22;1747;48.884;9.160;2024-03-06T14:36:49;9.00;99.90
3466;DHT22;1747;48.884;9.160;2024-03-06T14:39:16;9.00;99.90
3466;DHT22;1747;48.884;9.160;2024-03-06T14:41:43;9.00;99.90
3466;DHT22;1747;48.884;9.160;2024-03-06T14:44:14;9.00;99.90
3466;DHT22;1747;48.884;9.160;2024-03-06T14:46:41;9.00;99.90
3466;DHT22;1747;48.884;9.160;2024-03-06T14:49:08;9.00;99.90
3466;DHT22;1747;48.884;9.160;2024-03-06T14:51:36;9.00;99.90
3466;DHT22;1747;48.884;9.160;2024-03-06T14:54:02;9.00;99.90
3466;DHT22;1747;48.884;9.160;2024-03-06T14:56:29;9.00;99.90
3466;DHT22;1747;48.884;9.160;2024-03-06T14:58:56;9.00;99.90
3466;DHT22;1747;48.884;9.160;2024-03-06T15:01:25;9.00;99.90
3466;DHT22;1747;48.884;9.160;2024-03-06T15:03:52;9.00;99.90
3466;DHT22;1747;48.884;9.160;2024-03-06T15:06:19;9.00;99.90
3466;DHT22;1747;48.884;9.160;2024-03-06T15:08:46;8.90;99.90
3466;DHT22;1747;48.884;9.160;2024-03-06T15:11:13;8.90;99.90
3466;DHT22;1747;48.884;9.160;2024-03-06T15:13:40;8.90;99.90
3466;DHT22;1747;48.884;9.160;2024-03-06T15:16:07;8.90;99.90
3466;DHT22;1747;48.884;9.160;2024-03-06T15:18:36;9.00;99.90
3466;DHT22;1747;48.884;9.160;2024-03-06T15:21:03;9.00;99.90
3466;DHT22;1747;48.884;9.160;2024-03-06T15:23:30;9.00;99.90
3466;DHT22;1747;48.884;9.160;2024-03-06T15:25:58;9.10;99.90
3466;DHT22;1747;48.884;9.160;2024-03-06T15:28:25;9.10;99.90
3466;DHT22;1747;48.884;9.160;2024-03-06T15:30:52;9.10;99.90
3466;DHT22;1747;48.884;9.160;2024-03-06T15:33:18;9.10;99.90
3466;DHT22;1747;48.884;9.160;2024-03-06T15:35:47;9.10;99.90
3466;DHT22;1747;48.884;9.160;2024-03-06T15:38:13;9.00;99.90
3466;DHT22;1747;48.884;9.160;2024-03-06T15:40:40;9.10;99.90
3466;DHT22;1747;48.884;9.160;2024-03-06T15:43:07;9.10;99.90
3466;DHT22;1747;48.884;9.160;2024-03-06T15:45:35;9.10;99.90
3466;DHT22;1747;48.884;9.160;2024-03-06T15:48:02;9.10;99.90
3466;DHT22;1747;48.884;9.160;2024-03-06T15:50:28;9.00;99.90
3466;DHT22;1747;48.884;9.160;2024-03-06T15:52:57;9.00;99.90
3466;DHT22;1747;48.884;9.160;2024-03-06T15:55:24;9.00;99.90
3466;DHT22;1747;48.884;9.160;2024-03-06T15:57:51;9.00;99.90
3466;DHT22;1747;48.884;9.160;2024-03-06T16:00:18;9.00;99.90
3466;DHT22;1747;48.884;9.160;2024-03-06T16:02:45;9.00;99.90
3466;DHT22;1747;48.884;9.160;2024-03-06T16:05:13;9.00;99.90
3466;DHT22;1747;48.884;9.160;2024-03-06T16:07:40;9.00;99.90
3466;DHT22;1747;48.884;9.160;2024-03-06T16:10:08;9.00;99.90
3466;DHT22;1747;48.884;9.160;2024-03-06T16:12:36;9.00;99.90
3466;DHT22;1747;48.884;9.160;2024-03-06T16:15:03;9.00;99.90
3466;DHT22;1747;48.884;9.160;2024-03-06T16:17:54;9.00;99.90
3466;DHT22;1747;48.884;9.160;2024-03-06T16:20:23;9.00;99.90